Time;durP1;ratioP1;P1;durP2;ratioP2;P2;SDS_P1;SDS_P2;PMS_P1;PMS_P2;Temp;Humidity;BMP_temperature;BMP_pressure;BME280_temperature;BME280_humidity;BME280_pressure;Samples;Min_cycle;Max_cycle;Signal;HPM_P1;HPM_P2
2024/02/27 00:00:12;;;;;;;2.57;1.90;;;11.80;99.90;;;;;;5065965;28;20218;-73
2024/02/27 00:02:38;;;;;;;2.13;1.93;;;11.90;99.90;;;;;;5065791;28;20207;-72
2024/02/27 00:05:04;;;;;;;2.60;1.60;;;11.80;99.90;;;;;;5065631;28;20898;-71
2024/02/27 00:07:29;;;;;;;1.90;1.63;;;11.60;99.90;;;;;;5065822;28;20428;-71
2024/02/27 00:09:57;;;;;;;2.67;1.63;;;11.50;99.90;;;;;;5065328;28;20997;-72
2024/02/27 00:12:22;;;;;;;1.73;1.60;;;11.50;99.90;;;;;;5065738;28;20185;-72
2024/02/27 00:14:48;;;;;;;1.90;1.73;;;11.40;99.90;;;;;;5065663;28;20435;-70
2024/02/27 00:17:13;;;;;;;2.93;1.83;;;11.40;99.90;;;;;;5065463;28;20546;-72
2024/02/27 00:19:39;;;;;;;2.00;1.80;;;11.30;99.90;;;;;;5064860;28;20594;-72
2024/02/27 00:22:04;;;;;;;1.80;1.50;;;11.30;99.90;;;;;;5065279;28;20215;-72
2024/02/27 00:24:30;;;;;;;2.60;2.00;;;11.30;99.90;;;;;;5065108;28;20623;-71
2024/02/27 00:26:55;;;;;;;1.80;1.60;;;11.40;99.90;;;;;;5065113;28;20187;-72
2024/02/27 00:29:21;;;;;;;1.77;1.50;;;11.30;99.90;;;;;;5047516;28;20188;-71
2024/02/27 00:31:47;;;;;;;1.73;1.50;;;11.30;99.90;;;;;;5065110;28;20197;-73
2024/02/27 00:34:14;;;;;;;3.20;1.77;;;11.30;99.90;;;;;;5065221;28;20459;-71
2024/02/27 00:36:39;;;;;;;1.90;1.73;;;11.20;99.90;;;;;;5065392;28;20174;-72
2024/02/27 00:39:05;;;;;;;2.50;2.13;;;11.20;99.90;;;;;;5065082;28;20487;-72
2024/02/27 00:41:30;;;;;;;3.80;2.00;;;11.20;99.90;;;;;;5064801;28;20185;-72
2024/02/27 00:43:56;;;;;;;1.90;1.60;;;11.10;99.90;;;;;;5065273;28;20247;-71
2024/02/27 00:46:21;;;;;;;2.03;1.50;;;11.20;99.90;;;;;;5064750;28;20726;-72
2024/02/27 00:48:47;;;;;;;2.67;2.07;;;11.10;99.90;;;;;;5064534;28;20653;-72
2024/02/27 00:51:12;;;;;;;3.17;2.53;;;11.00;99.90;;;;;;5064906;28;20660;-73
2024/02/27 00:53:39;;;;;;;1.53;1.37;;;11.00;99.90;;;;;;5064667;28;20688;-73
2024/02/27 00:56:06;;;;;;;1.93;1.53;;;10.80;99.90;;;;;;5065184;28;20196;-72
2024/02/27 00:58:31;;;;;;;4.00;1.63;;;10.70;99.90;;;;;;5064735;28;20850;-71
2024/02/27 01:00:57;;;;;;;3.23;1.40;;;10.70;99.90;;;;;;5064743;28;20411;-72
2024/02/27 01:03:22;;;;;;;1.57;1.47;;;10.60;99.90;;;;;;5064486;28;20181;-71
2024/02/27 01:05:48;;;;;;;2.43;1.40;;;10.70;99.90;;;;;;5064541;28;20374;-72
2024/02/27 01:08:13;;;;;;;1.63;1.37;;;10.70;99.90;;;;;;5064310;28;20172;-72
2024/02/27 01:10:39;;;;;;;2.03;1.60;;;10.80;99.90;;;;;;5064390;28;20574;-73
2024/02/27 01:13:05;;;;;;;2.70;1.77;;;10.70;99.90;;;;;;5046364;28;20181;-72
2024/02/27 01:15:30;;;;;;;2.10;1.57;;;10.70;99.90;;;;;;5046420;28;20759;-72
2024/02/27 01:17:56;;;;;;;2.00;1.60;;;10.70;99.90;;;;;;5064359;28;20275;-73
2024/02/27 01:20:21;;;;;;;1.40;1.30;;;10.70;99.90;;;;;;5064360;28;20180;-73
2024/02/27 01:22:47;;;;;;;1.87;1.33;;;10.70;99.90;;;;;;5064270;28;20189;-72
2024/02/27 01:25:12;;;;;;;1.80;1.53;;;10.70;99.90;;;;;;5064378;28;20200;-72
2024/02/27 01:27:38;;;;;;;1.40;1.20;;;10.70;99.90;;;;;;5064082;28;20174;-71
2024/02/27 01:30:04;;;;;;;1.50;1.37;;;10.70;99.90;;;;;;5063995;28;20353;-71
2024/02/27 01:32:30;;;;;;;2.47;1.27;;;10.80;99.90;;;;;;5063370;28;20197;-72
2024/02/27 01:34:57;;;;;;;1.30;1.03;;;10.90;99.90;;;;;;5063619;28;20974;-73
2024/02/27 01:37:23;;;;;;;1.97;1.20;;;10.90;99.90;;;;;;5064207;28;20182;-71
2024/02/27 01:39:48;;;;;;;1.70;1.20;;;10.90;99.90;;;;;;5064288;28;20464;-72
2024/02/27 01:42:14;;;;;;;3.13;1.70;;;10.90;99.90;;;;;;5063808;28;20183;-72
2024/02/27 01:44:51;;;;;;;2.37;1.23;;;10.70;99.90;;;;;;5063802;28;20797;-71
2024/02/27 01:47:17;;;;;;;1.70;1.30;;;10.40;99.90;;;;;;5063991;28;20386;-71
2024/02/27 01:49:43;;;;;;;1.60;1.43;;;10.30;99.90;;;;;;5064275;28;20404;-73
2024/02/27 01:52:09;;;;;;;2.20;1.50;;;10.20;99.90;;;;;;5064938;28;20422;-72
2024/02/27 01:54:35;;;;;;;1.23;1.10;;;10.10;99.90;;;;;;5065163;28;20284;-73
2024/02/27 01:57:02;;;;;;;2.97;1.57;;;10.40;99.90;;;;;;5065483;28;20427;-72
2024/02/27 01:59:28;;;;;;;2.50;2.13;;;10.30;99.90;;;;;;5064812;28;20872;-71
2024/02/27 02:01:55;;;;;;;1.90;1.70;;;10.50;99.90;;;;;;5064127;28;20460;-72
2024/02/27 02:04:20;;;;;;;1.87;1.53;;;10.70;99.90;;;;;;5063788;28;20489;-73
2024/02/27 02:06:46;;;;;;;3.80;1.50;;;10.70;99.90;;;;;;5063535;28;20451;-73
2024/02/27 02:09:12;;;;;;;1.80;1.60;;;10.80;99.90;;;;;;5064017;28;20183;-71
2024/02/27 02:11:41;;;;;;;2.00;1.80;;;10.90;99.90;;;;;;5063149;28;20458;-73
2024/02/27 02:14:07;;;;;;;3.07;2.20;;;10.60;99.90;;;;;;5063425;28;20511;-71
2024/02/27 02:16:33;;;;;;;2.67;2.10;;;10.30;99.90;;;;;;5063710;28;20905;-71
2024/02/27 02:18:58;;;;;;;2.90;2.00;;;10.50;99.90;;;;;;5063219;28;20180;-72
2024/02/27 02:21:24;;;;;;;2.57;2.37;;;10.60;99.90;;;;;;5063470;28;20276;-70
2024/02/27 02:23:49;;;;;;;2.73;2.37;;;10.70;99.90;;;;;;5063082;28;20204;-72
2024/02/27 02:26:16;;;;;;;2.37;2.17;;;10.70;99.90;;;;;;5063375;28;20181;-70
2024/02/27 02:28:42;;;;;;;2.60;2.20;;;10.80;99.90;;;;;;5063338;28;20562;-71
2024/02/27 02:31:07;;;;;;;2.70;2.37;;;10.70;99.90;;;;;;5063062;28;20451;-70
2024/02/27 02:33:33;;;;;;;3.37;3.00;;;10.60;99.90;;;;;;5062848;28;21253;-72
2024/02/27 02:35:59;;;;;;;2.50;2.30;;;10.70;99.90;;;;;;5045256;28;20259;-70
2024/02/27 02:38:25;;;;;;;3.33;2.60;;;10.80;99.90;;;;;;5063321;28;20411;-70
2024/02/27 02:40:50;;;;;;;4.40;3.50;;;10.80;99.90;;;;;;5062916;28;20211;-69
2024/02/27 02:43:16;;;;;;;5.10;4.40;;;10.50;99.90;;;;;;5065430;28;20183;-69
2024/02/27 02:45:41;;;;;;;3.80;3.50;;;10.40;99.90;;;;;;5067033;28;20712;-70
2024/02/27 02:48:07;;;;;;;6.13;4.77;;;10.30;99.90;;;;;;5066617;28;20735;-70
2024/02/27 02:50:33;;;;;;;5.83;4.87;;;10.40;99.90;;;;;;5066908;28;20219;-70
2024/02/27 02:52:58;;;;;;;5.70;5.20;;;10.50;99.90;;;;;;5067108;28;20207;-70
2024/02/27 02:55:25;;;;;;;5.03;4.53;;;10.60;99.90;;;;;;5066740;28;20252;-70
2024/02/27 02:57:51;;;;;;;4.93;4.53;;;10.60;99.90;;;;;;5066848;28;20253;-70
2024/02/27 03:00:18;;;;;;;5.33;4.67;;;10.60;99.90;;;;;;5066700;28;20517;-70
2024/02/27 03:02:43;;;;;;;5.50;4.70;;;10.70;99.90;;;;;;5066670;28;20341;-69
2024/02/27 03:05:12;;;;;;;5.67;4.43;;;10.80;99.90;;;;;;5066796;28;20436;-69
2024/02/27 03:07:38;;;;;;;6.20;4.70;;;10.90;99.90;;;;;;5066735;28;20590;-70
2024/02/27 03:10:04;;;;;;;10.10;7.73;;;10.90;99.90;;;;;;5066637;28;20455;-69
2024/02/27 03:12:30;;;;;;;6.23;5.33;;;10.70;99.90;;;;;;5066925;28;20823;-70
2024/02/27 03:14:56;;;;;;;8.30;7.10;;;10.70;99.90;;;;;;5066324;28;21265;-69
2024/02/27 03:17:22;;;;;;;7.13;6.20;;;10.70;99.90;;;;;;5066912;28;20265;-70
2024/02/27 03:19:47;;;;;;;6.90;6.00;;;10.40;99.90;;;;;;5066705;28;20418;-70
2024/02/27 03:22:13;;;;;;;8.10;7.10;;;10.60;99.90;;;;;;5066913;28;20188;-69
2024/02/27 03:24:39;;;;;;;6.47;5.83;;;10.30;99.90;;;;;;5066601;28;20330;-70
2024/02/27 03:27:05;;;;;;;8.20;6.50;;;9.90;99.90;;;;;;5067151;28;20255;-70
2024/02/27 03:29:31;;;;;;;8.33;6.80;;;9.90;99.90;;;;;;5067246;28;20178;-70
2024/02/27 03:31:56;;;;;;;9.17;6.93;;;10.10;99.90;;;;;;5066208;28;20564;-69
2024/02/27 03:34:24;;;;;;;7.50;6.67;;;10.30;99.90;;;;;;5066272;28;20219;-70
2024/02/27 03:36:49;;;;;;;9.30;7.60;;;10.30;99.90;;;;;;5066337;28;20187;-70
2024/02/27 03:39:15;;;;;;;6.53;5.87;;;10.40;99.90;;;;;;5066304;28;20794;-70
2024/02/27 03:41:41;;;;;;;6.57;5.63;;;10.50;99.90;;;;;;5066073;28;20700;-71
2024/02/27 03:44:06;;;;;;;8.27;7.30;;;10.60;99.90;;;;;;5066588;28;20200;-70
2024/02/27 03:46:32;;;;;;;8.67;7.53;;;10.70;99.90;;;;;;5065939;28;20178;-70
2024/02/27 03:48:58;;;;;;;8.67;7.67;;;10.70;99.90;;;;;;5066092;28;20185;-70
2024/02/27 03:51:23;;;;;;;8.47;7.30;;;10.80;99.90;;;;;;5065864;28;20271;-70
2024/02/27 03:53:49;;;;;;;7.83;6.87;;;10.70;99.90;;;;;;5065716;28;20654;-70
2024/02/27 03:56:14;;;;;;;8.73;6.80;;;10.60;99.90;;;;;;5065610;28;20180;-70
2024/02/27 03:58:40;;;;;;;10.20;8.20;;;10.30;99.90;;;;;;5066029;28;20176;-71
2024/02/27 04:01:06;;;;;;;10.97;8.93;;;10.00;99.90;;;;;;5066986;28;20211;-71
2024/02/27 04:03:31;;;;;;;8.63;7.03;;;9.90;99.90;;;;;;5066438;28;20262;-70
2024/02/27 04:05:57;;;;;;;10.53;9.10;;;9.90;99.90;;;;;;5066780;28;20181;-70
2024/02/27 04:08:22;;;;;;;10.20;8.50;;;9.90;99.90;;;;;;5066181;28;20611;-69
2024/02/27 04:10:48;;;;;;;8.60;7.67;;;10.10;99.90;;;;;;5065474;28;20200;-70
2024/02/27 04:13:13;;;;;;;7.90;7.00;;;10.00;99.90;;;;;;5065511;28;20255;-70
2024/02/27 04:15:40;;;;;;;11.30;8.57;;;10.10;99.90;;;;;;5073675;28;20197;-70
2024/02/27 04:18:07;;;;;;;8.83;7.60;;;10.00;99.90;;;;;;5079323;28;20183;-68
2024/02/27 04:20:34;;;;;;;9.33;8.30;;;9.80;99.90;;;;;;5078714;28;20411;-73
2024/02/27 04:23:00;;;;;;;10.13;8.83;;;9.80;99.90;;;;;;5077572;28;20782;-71
2024/02/27 04:25:25;;;;;;;9.30;7.53;;;9.60;99.90;;;;;;5075864;28;20488;-71
2024/02/27 04:27:51;;;;;;;9.67;8.67;;;9.60;99.90;;;;;;5069563;28;20448;-71
2024/02/27 04:30:17;;;;;;;10.13;8.50;;;9.50;99.90;;;;;;5066098;28;21422;-71
2024/02/27 04:32:43;;;;;;;11.03;7.83;;;9.50;99.90;;;;;;5065123;28;20208;-72
2024/02/27 04:35:09;;;;;;;10.97;8.60;;;9.50;99.90;;;;;;5064982;28;20488;-71
2024/02/27 04:37:35;;;;;;;12.27;9.07;;;9.60;99.90;;;;;;5065066;28;20440;-72
2024/02/27 04:40:00;;;;;;;10.90;8.63;;;9.80;99.90;;;;;;5065218;28;20560;-70
2024/02/27 04:42:26;;;;;;;9.70;8.30;;;9.70;99.90;;;;;;5064749;28;20565;-70
2024/02/27 04:44:51;;;;;;;10.70;8.87;;;9.60;99.90;;;;;;5064888;28;20199;-71
2024/02/27 04:47:17;;;;;;;10.33;9.10;;;9.70;99.90;;;;;;5064115;28;20177;-71
2024/02/27 04:49:42;;;;;;;12.80;9.20;;;9.80;99.90;;;;;;5064868;28;20176;-72
2024/02/27 04:52:08;;;;;;;11.40;8.53;;;9.90;99.90;;;;;;5064349;28;20206;-71
2024/02/27 04:54:35;;;;;;;10.07;7.80;;;9.80;99.90;;;;;;5064936;28;20224;-71
2024/02/27 04:57:00;;;;;;;9.77;8.17;;;10.00;99.90;;;;;;5064759;28;20179;-72
2024/02/27 04:59:26;;;;;;;11.20;8.23;;;10.00;99.90;;;;;;5064867;28;20467;-73
2024/02/27 05:01:51;;;;;;;11.90;9.30;;;10.00;99.90;;;;;;5064606;28;20274;-71
2024/02/27 05:04:17;;;;;;;9.90;8.60;;;9.90;99.90;;;;;;5064352;28;20199;-72
2024/02/27 05:06:43;;;;;;;15.63;9.60;;;9.70;99.90;;;;;;5064932;28;20712;-71
2024/02/27 05:09:08;;;;;;;11.27;9.63;;;9.70;99.90;;;;;;5064933;28;20213;-71
2024/02/27 05:11:34;;;;;;;10.60;8.90;;;9.80;99.90;;;;;;5064522;28;20205;-71
2024/02/27 05:14:00;;;;;;;9.47;8.13;;;9.70;99.90;;;;;;5064288;28;20202;-70
2024/02/27 05:16:26;;;;;;;11.63;8.70;;;9.60;99.90;;;;;;5064237;28;20181;-72
2024/02/27 05:18:52;;;;;;;12.93;9.53;;;9.60;99.90;;;;;;5064306;28;20835;-71
2024/02/27 05:21:18;;;;;;;10.57;8.80;;;9.50;99.90;;;;;;5064684;28;20181;-70
2024/02/27 05:23:44;;;;;;;11.10;10.00;;;9.50;99.90;;;;;;5064183;28;20577;-71
2024/02/27 05:26:10;;;;;;;12.00;9.50;;;9.40;99.90;;;;;;5064844;28;20427;-72
2024/02/27 05:28:36;;;;;;;12.20;10.03;;;9.30;99.90;;;;;;5064406;28;20459;-71
2024/02/27 05:31:21;;;;;;;11.13;9.67;;;9.10;99.90;;;;;;5063862;28;20497;-72
2024/02/27 05:33:47;;;;;;;12.10;9.30;;;9.10;99.90;;;;;;5064131;28;20204;-72
2024/02/27 05:36:12;;;;;;;11.87;10.03;;;9.10;99.90;;;;;;5063928;28;20406;-72
2024/02/27 05:38:38;;;;;;;10.37;8.93;;;9.20;99.90;;;;;;5064572;28;20185;-72
2024/02/27 05:41:03;;;;;;;12.07;9.60;;;9.20;99.90;;;;;;5064252;28;20645;-71
2024/02/27 05:43:29;;;;;;;11.40;9.80;;;9.30;99.90;;;;;;5064820;28;20194;-72
2024/02/27 05:45:54;;;;;;;11.00;9.27;;;9.30;99.90;;;;;;5064450;28;20634;-73
2024/02/27 05:48:20;;;;;;;10.83;9.73;;;9.10;99.90;;;;;;5064871;28;20536;-72
2024/02/27 05:50:45;;;;;;;13.90;10.33;;;9.20;99.90;;;;;;5064840;28;20201;-73
2024/02/27 05:53:11;;;;;;;13.57;10.70;;;9.10;99.90;;;;;;5064648;28;20187;-73
2024/02/27 05:55:37;;;;;;;12.40;10.73;;;8.90;99.90;;;;;;5064145;28;20202;-69
2024/02/27 05:58:02;;;;;;;13.10;10.47;;;8.90;99.90;;;;;;5063861;28;20528;-71
2024/02/27 06:00:28;;;;;;;13.90;12.00;;;9.10;99.90;;;;;;5063702;28;20178;-70
2024/02/27 06:02:53;;;;;;;15.10;11.23;;;9.10;99.90;;;;;;5063597;28;20187;-69
2024/02/27 06:05:19;;;;;;;16.80;10.80;;;9.20;99.90;;;;;;5063655;28;20692;-71
2024/02/27 06:07:45;;;;;;;15.30;12.27;;;9.20;99.90;;;;;;5063201;28;20185;-73
2024/02/27 06:10:11;;;;;;;16.17;11.70;;;9.20;99.90;;;;;;5063463;28;20175;-72
2024/02/27 06:12:36;;;;;;;13.63;11.37;;;9.20;99.90;;;;;;5063468;28;20416;-73
2024/02/27 06:15:03;;;;;;;14.27;11.37;;;9.10;99.90;;;;;;5063386;28;20676;-71
2024/02/27 06:17:29;;;;;;;14.77;11.13;;;9.10;99.90;;;;;;5044757;28;20170;-72
2024/02/27 06:19:59;;;;;;;14.93;11.50;;;9.00;99.90;;;;;;5069594;28;20412;-71
2024/02/27 06:22:25;;;;;;;14.20;11.40;;;9.20;99.90;;;;;;5063424;28;20642;-72
2024/02/27 06:24:51;;;;;;;15.10;11.57;;;9.30;99.90;;;;;;5063508;28;20464;-71
2024/02/27 06:27:16;;;;;;;12.63;11.23;;;9.30;99.90;;;;;;5063086;28;20244;-72
2024/02/27 06:29:42;;;;;;;13.93;11.30;;;9.20;99.90;;;;;;5063429;28;20190;-72
2024/02/27 06:32:10;;;;;;;14.00;12.27;;;9.40;99.90;;;;;;5062931;28;20675;-72
2024/02/27 06:34:36;;;;;;;13.57;11.00;;;9.50;99.90;;;;;;5063242;28;20288;-72
2024/02/27 06:37:02;;;;;;;14.90;12.30;;;9.40;99.90;;;;;;5063186;28;20924;-70
2024/02/27 06:39:27;;;;;;;14.50;12.00;;;9.50;99.90;;;;;;5062676;28;20407;-71
2024/02/27 06:41:53;;;;;;;14.80;12.37;;;9.60;99.90;;;;;;5064555;28;20182;-71
2024/02/27 06:44:18;;;;;;;15.17;12.23;;;9.50;99.90;;;;;;5062721;28;20197;-73
2024/02/27 06:46:44;;;;;;;16.10;12.80;;;9.50;99.90;;;;;;5063148;28;20184;-72
2024/02/27 06:49:10;;;;;;;16.47;12.83;;;9.50;99.90;;;;;;5062856;28;20181;-72
2024/02/27 06:51:37;;;;;;;17.17;14.10;;;9.40;99.90;;;;;;5062941;28;20548;-72
2024/02/27 06:54:03;;;;;;;14.93;13.33;;;9.30;99.90;;;;;;5062673;28;20195;-71
2024/02/27 06:56:28;;;;;;;17.00;14.83;;;9.10;99.90;;;;;;5044986;28;20417;-72
2024/02/27 06:58:55;;;;;;;16.80;13.70;;;9.20;99.90;;;;;;5062920;28;20412;-72
2024/02/27 07:01:21;;;;;;;17.20;15.30;;;9.20;99.90;;;;;;5062759;28;20266;-73
2024/02/27 07:03:47;;;;;;;18.17;12.97;;;9.30;99.90;;;;;;5062876;28;20490;-72
2024/02/27 07:06:13;;;;;;;19.10;15.47;;;9.30;99.90;;;;;;5063087;28;20418;-72
2024/02/27 07:08:38;;;;;;;16.23;13.87;;;9.30;99.90;;;;;;5063332;28;20181;-71
2024/02/27 07:11:06;;;;;;;18.70;15.33;;;9.20;99.90;;;;;;5062879;28;20200;-72
2024/02/27 07:13:31;;;;;;;18.33;16.10;;;9.10;99.90;;;;;;5044987;28;20172;-73
2024/02/27 07:15:57;;;;;;;19.87;16.20;;;9.00;99.90;;;;;;5062665;28;20473;-72
2024/02/27 07:18:22;;;;;;;19.73;15.10;;;9.00;99.90;;;;;;5062451;28;20181;-74
2024/02/27 07:20:48;;;;;;;22.07;16.03;;;9.10;99.90;;;;;;5062990;28;20606;-72
2024/02/27 07:23:14;;;;;;;19.10;14.70;;;9.10;99.90;;;;;;5062419;28;21002;-73
2024/02/27 07:25:40;;;;;;;20.90;15.27;;;9.20;99.90;;;;;;5062906;28;20195;-72
2024/02/27 07:28:06;;;;;;;22.70;16.30;;;9.20;99.90;;;;;;5062515;28;20197;-72
2024/02/27 07:30:31;;;;;;;20.63;16.63;;;9.20;99.90;;;;;;5047291;28;20460;-72
2024/02/27 07:32:57;;;;;;;20.43;15.30;;;9.10;99.90;;;;;;5066017;28;20425;-72
2024/02/27 07:35:22;;;;;;;18.80;16.20;;;9.30;99.90;;;;;;5066282;28;20218;-72
2024/02/27 07:37:48;;;;;;;20.23;16.40;;;9.40;99.90;;;;;;5066181;28;20180;-73
2024/02/27 07:40:14;;;;;;;20.73;16.50;;;9.20;99.90;;;;;;5066240;28;20182;-74
2024/02/27 07:42:39;;;;;;;19.30;16.80;;;9.30;99.90;;;;;;5065885;28;20230;-72
2024/02/27 07:45:05;;;;;;;19.10;15.40;;;9.30;99.90;;;;;;5065869;28;20221;-72
2024/02/27 07:47:32;;;;;;;20.20;15.70;;;9.20;99.90;;;;;;5066450;28;20519;-72
2024/02/27 07:49:57;;;;;;;23.60;17.70;;;9.40;99.90;;;;;;5047475;28;20421;-72
2024/02/27 07:52:23;;;;;;;18.73;15.40;;;9.50;99.90;;;;;;5065874;28;20408;-71
2024/02/27 07:54:48;;;;;;;20.30;15.40;;;9.50;99.90;;;;;;5065409;28;20625;-72
2024/02/27 07:57:14;;;;;;;18.17;15.77;;;9.50;99.90;;;;;;5065822;28;20175;-73
2024/02/27 07:59:40;;;;;;;20.93;16.60;;;9.40;99.90;;;;;;5065812;28;20546;-72
2024/02/27 08:02:05;;;;;;;18.70;16.70;;;9.40;99.90;;;;;;5065800;28;20669;-74
2024/02/27 08:04:31;;;;;;;18.57;16.40;;;9.40;99.90;;;;;;5065474;28;20566;-73
2024/02/27 08:06:57;;;;;;;19.43;16.07;;;9.30;99.90;;;;;;5065778;28;20600;-73
2024/02/27 08:09:22;;;;;;;19.30;16.00;;;9.40;99.90;;;;;;5065868;28;20182;-72
2024/02/27 08:11:48;;;;;;;22.20;17.53;;;9.70;99.90;;;;;;5065501;28;20244;-73
2024/02/27 08:14:13;;;;;;;24.60;18.70;;;9.90;99.90;;;;;;5065235;28;20252;-73
2024/02/27 08:16:39;;;;;;;22.20;16.07;;;9.60;99.90;;;;;;5065627;28;20202;-73
2024/02/27 08:19:04;;;;;;;20.23;17.20;;;9.30;99.90;;;;;;5065658;28;20174;-72
2024/02/27 08:21:31;;;;;;;18.17;15.97;;;9.50;99.90;;;;;;5065423;28;20203;-73
2024/02/27 08:23:57;;;;;;;18.20;15.57;;;9.70;99.90;;;;;;5065303;28;20211;-72
2024/02/27 08:26:22;;;;;;;17.67;15.00;;;9.80;99.90;;;;;;5065523;28;20419;-74
2024/02/27 08:28:48;;;;;;;18.63;15.87;;;10.10;99.90;;;;;;5065602;28;20175;-73
2024/02/27 08:31:14;;;;;;;20.17;16.17;;;10.10;99.90;;;;;;5064366;28;20203;-72
2024/02/27 08:33:40;;;;;;;20.77;17.33;;;9.80;99.90;;;;;;5064976;28;20229;-73
2024/02/27 08:36:06;;;;;;;18.03;14.87;;;9.70;99.90;;;;;;5065254;28;20181;-73
2024/02/27 08:38:31;;;;;;;18.80;15.30;;;9.80;99.90;;;;;;5064944;28;20422;-73
2024/02/27 08:40:57;;;;;;;19.43;15.90;;;10.00;99.90;;;;;;5064677;28;20419;-73
2024/02/27 08:43:22;;;;;;;20.97;16.40;;;10.30;99.90;;;;;;5064746;28;20181;-73
2024/02/27 08:45:48;;;;;;;19.30;15.40;;;10.30;99.90;;;;;;5064889;28;20200;-73
2024/02/27 08:48:14;;;;;;;24.00;17.17;;;10.30;99.90;;;;;;5064765;28;20188;-74
2024/02/27 08:50:39;;;;;;;17.93;16.03;;;10.30;99.90;;;;;;5064783;28;20286;-73
2024/02/27 08:53:05;;;;;;;21.60;15.80;;;10.50;99.90;;;;;;5064434;28;20542;-73
2024/02/27 08:55:31;;;;;;;19.33;16.90;;;10.50;99.90;;;;;;5064702;28;20668;-72
2024/02/27 08:57:57;;;;;;;20.93;15.77;;;10.60;99.90;;;;;;5064559;28;20229;-73
2024/02/27 09:00:23;;;;;;;18.10;16.20;;;10.60;99.90;;;;;;5064834;28;20416;-73
2024/02/27 09:02:48;;;;;;;19.77;15.30;;;10.60;99.90;;;;;;5064907;28;20299;-73
2024/02/27 09:05:14;;;;;;;18.97;15.87;;;10.40;99.90;;;;;;5064495;28;21011;-73
2024/02/27 09:07:41;;;;;;;23.93;17.97;;;10.60;99.90;;;;;;5064981;28;20183;-72
2024/02/27 09:10:10;;;;;;;19.90;16.27;;;10.50;99.90;;;;;;5064191;28;20177;-72
2024/02/27 09:12:38;;;;;;;19.77;17.10;;;10.20;99.90;;;;;;5064437;28;20408;-72
2024/02/27 09:15:04;;;;;;;20.90;17.33;;;10.00;99.90;;;;;;5064552;28;20809;-73
2024/02/27 09:17:31;;;;;;;21.23;17.13;;;9.90;99.90;;;;;;5064413;28;20411;-72
2024/02/27 09:19:57;;;;;;;21.27;17.97;;;10.20;99.90;;;;;;5065020;28;20421;-72
2024/02/27 09:22:23;;;;;;;20.60;17.13;;;10.50;99.90;;;;;;5064708;28;20415;-72
2024/02/27 09:24:48;;;;;;;19.93;15.17;;;10.30;99.90;;;;;;5065086;28;20498;-73
2024/02/27 09:27:15;;;;;;;19.17;16.43;;;10.40;99.90;;;;;;5064933;28;20643;-74
2024/02/27 09:29:40;;;;;;;21.37;16.77;;;10.40;99.90;;;;;;5064346;28;20189;-74
2024/02/27 09:32:06;;;;;;;19.40;17.20;;;10.00;99.90;;;;;;5063916;28;20868;-73
2024/02/27 09:34:32;;;;;;;19.63;17.50;;;10.30;99.90;;;;;;5064300;28;20295;-73
2024/02/27 09:36:57;;;;;;;21.70;16.57;;;10.30;99.90;;;;;;5064023;28;20543;-73
2024/02/27 09:39:23;;;;;;;33.13;17.43;;;10.50;99.90;;;;;;5063823;28;20173;-74
2024/02/27 09:42:15;;;;;;;21.77;17.30;;;10.40;99.90;;;;;;5064509;28;20230;-73
2024/02/27 09:44:43;;;;;;;22.73;16.73;;;10.10;99.90;;;;;;5060419;28;20444;-72
2024/02/27 09:47:11;;;;;;;20.43;16.97;;;10.10;99.90;;;;;;5063700;28;20423;-72
2024/02/27 09:49:41;;;;;;;20.07;17.97;;;9.90;99.90;;;;;;5063742;28;20417;-71
2024/02/27 09:52:10;;;;;;;21.77;18.03;;;9.90;99.90;;;;;;5062834;28;20452;-72
2024/02/27 09:54:37;;;;;;;18.90;16.70;;;10.10;99.90;;;;;;5063558;28;20416;-72
2024/02/27 09:57:03;;;;;;;20.27;17.50;;;10.50;99.90;;;;;;5063882;28;20412;-72
2024/02/27 09:59:29;;;;;;;21.40;18.53;;;10.30;99.90;;;;;;5063404;28;20535;-73
2024/02/27 10:02:05;;;;;;;21.27;17.97;;;10.30;99.90;;;;;;5063421;28;20412;-72
2024/02/27 10:04:32;;;;;;;18.93;16.70;;;9.90;99.90;;;;;;5063547;28;20432;-71
2024/02/27 10:07:00;;;;;;;18.93;16.27;;;10.00;99.90;;;;;;5045276;28;20415;-72
2024/02/27 10:09:27;;;;;;;20.83;17.73;;;10.40;99.90;;;;;;5063407;28;20409;-72
2024/02/27 10:11:54;;;;;;;19.90;16.40;;;10.30;99.90;;;;;;5063624;28;20476;-72
2024/02/27 10:14:31;;;;;;;23.73;17.97;;;10.00;99.90;;;;;;5063078;28;20508;-73
2024/02/27 10:16:57;;;;;;;19.53;16.70;;;10.10;99.90;;;;;;5045184;28;20177;-73
2024/02/27 10:19:26;;;;;;;21.23;17.50;;;9.90;99.90;;;;;;5063477;28;20424;-73
2024/02/27 10:21:54;;;;;;;19.07;16.70;;;9.90;99.90;;;;;;5063750;28;20188;-72
2024/02/27 10:24:25;;;;;;;20.43;18.13;;;9.90;99.90;;;;;;5063438;28;20459;-73
2024/02/27 10:26:55;;;;;;;22.27;18.87;;;10.20;99.90;;;;;;5063469;28;20407;-73
2024/02/27 10:29:26;;;;;;;18.77;16.70;;;10.40;99.90;;;;;;5062996;28;20414;-72
2024/02/27 10:31:51;;;;;;;23.83;19.53;;;10.10;99.90;;;;;;5062936;28;20472;-73
2024/02/27 10:34:18;;;;;;;27.93;20.53;;;10.30;99.90;;;;;;5062937;28;20454;-73
2024/02/27 10:36:44;;;;;;;25.77;19.73;;;10.50;99.90;;;;;;5063414;28;20184;-73
2024/02/27 10:39:10;;;;;;;24.30;20.53;;;10.50;99.90;;;;;;5062474;28;20829;-74
2024/02/27 10:41:41;;;;;;;21.63;18.50;;;10.40;99.90;;;;;;5063162;28;20212;-72
2024/02/27 10:44:08;;;;;;;19.97;17.80;;;10.50;99.90;;;;;;5063511;28;20438;-73
2024/02/27 10:46:36;;;;;;;24.93;19.77;;;10.40;99.90;;;;;;5062901;28;20916;-72
2024/02/27 10:49:02;;;;;;;27.30;20.57;;;10.40;99.90;;;;;;5063102;28;20502;-70
2024/02/27 10:51:29;;;;;;;23.23;18.07;;;10.30;99.90;;;;;;5062986;28;20808;-72
2024/02/27 10:53:58;;;;;;;22.10;19.10;;;10.30;99.90;;;;;;5063104;28;20847;-71
2024/02/27 10:56:24;;;;;;;21.50;19.20;;;10.60;99.90;;;;;;5062991;28;20419;-71
2024/02/27 10:58:52;;;;;;;24.30;18.60;;;10.60;99.90;;;;;;5063156;28;20408;-72
2024/02/27 11:01:18;;;;;;;24.13;19.00;;;10.80;99.90;;;;;;5062991;28;20415;-72
2024/02/27 11:03:48;;;;;;;23.47;18.83;;;11.00;99.90;;;;;;5063750;28;20541;-71
2024/02/27 11:06:19;;;;;;;25.57;19.47;;;11.10;99.90;;;;;;5067012;28;20901;-73
2024/02/27 11:08:46;;;;;;;20.73;18.23;;;11.10;99.90;;;;;;5066638;28;20544;-71
2024/02/27 11:11:13;;;;;;;21.33;18.93;;;10.90;99.90;;;;;;5066636;28;20470;-71
2024/02/27 11:13:42;;;;;;;21.83;19.50;;;10.90;99.90;;;;;;5066912;28;20816;-72
2024/02/27 11:16:11;;;;;;;25.53;19.33;;;11.10;99.90;;;;;;5067268;28;20416;-72
2024/02/27 11:18:40;;;;;;;21.50;18.20;;;11.00;99.90;;;;;;5066651;28;20473;-73
2024/02/27 11:21:07;;;;;;;21.37;17.97;;;11.10;99.90;;;;;;5066644;28;20411;-71
2024/02/27 11:23:33;;;;;;;21.00;17.40;;;10.70;99.90;;;;;;5066886;28;20796;-72
2024/02/27 11:25:59;;;;;;;25.30;19.00;;;10.80;99.90;;;;;;5066605;28;20516;-72
2024/02/27 11:28:25;;;;;;;21.30;19.00;;;10.90;99.90;;;;;;5067038;28;20591;-73
2024/02/27 11:30:51;;;;;;;21.10;17.10;;;11.00;99.90;;;;;;5066587;28;20465;-73
2024/02/27 11:33:20;;;;;;;20.00;17.80;;;11.00;99.90;;;;;;5066310;28;20463;-73
2024/02/27 11:35:48;;;;;;;20.57;18.47;;;11.10;99.90;;;;;;5065917;28;20499;-72
2024/02/27 11:38:21;;;;;;;20.90;17.40;;;11.30;99.90;;;;;;5047897;28;20956;-72
2024/02/27 11:40:48;;;;;;;23.80;17.90;;;11.50;99.90;;;;;;5066837;28;20443;-72
2024/02/27 11:43:15;;;;;;;23.70;18.33;;;11.80;99.90;;;;;;5066087;28;20413;-72
2024/02/27 11:45:41;;;;;;;19.97;17.63;;;11.90;99.90;;;;;;5066076;28;20443;-72
2024/02/27 11:48:07;;;;;;;21.57;18.87;;;11.70;99.90;;;;;;5065901;28;20565;-73
2024/02/27 11:50:35;;;;;;;26.33;19.10;;;11.80;99.90;;;;;;5066001;28;20460;-73
2024/02/27 11:53:16;;;;;;;19.40;17.40;;;12.00;99.90;;;;;;5066002;28;20472;-73
2024/02/27 11:55:52;;;;;;;22.17;19.80;;;11.90;99.90;;;;;;5066053;28;20460;-72
2024/02/27 11:58:18;;;;;;;22.83;19.00;;;12.10;99.90;;;;;;5065525;28;20392;-72
2024/02/27 12:00:45;;;;;;;24.20;21.00;;;12.20;99.90;;;;;;5065730;28;20922;-74
2024/02/27 12:03:11;;;;;;;23.53;20.10;;;11.80;99.90;;;;;;5065934;28;20416;-72
2024/02/27 12:05:36;;;;;;;22.77;19.27;;;11.40;99.90;;;;;;5065592;28;20729;-73
2024/02/27 12:08:02;;;;;;;21.87;18.50;;;11.20;99.90;;;;;;5066332;28;20932;-73
2024/02/27 12:10:28;;;;;;;30.37;21.77;;;11.50;99.90;;;;;;5065712;28;20206;-73
2024/02/27 12:12:54;;;;;;;24.43;21.57;;;11.50;99.90;;;;;;5065697;28;20644;-73
2024/02/27 12:15:20;;;;;;;26.73;20.87;;;11.60;99.90;;;;;;5064931;28;20190;-73
2024/02/27 12:17:46;;;;;;;25.80;21.50;;;11.30;99.90;;;;;;5065664;28;20924;-73
2024/02/27 12:20:13;;;;;;;25.00;21.47;;;11.30;99.90;;;;;;5065560;28;20485;-72
2024/02/27 12:22:47;;;;;;;25.20;21.93;;;11.20;99.90;;;;;;5065309;28;20168;-73
2024/02/27 12:25:16;;;;;;;24.50;20.30;;;11.10;99.90;;;;;;5065722;28;20432;-73
2024/02/27 12:27:43;;;;;;;27.87;21.20;;;11.00;99.90;;;;;;5065628;28;20972;-73
2024/02/27 12:30:10;;;;;;;26.40;21.67;;;10.90;99.90;;;;;;5065083;28;20543;-73
2024/02/27 12:32:45;;;;;;;27.67;23.47;;;10.90;99.90;;;;;;5065434;28;20412;-73